createdAt,value
2022-10-20T00:01:08.445Z,23.83
2022-10-20T00:03:35.365Z,25.60
2022-10-20T00:06:11.116Z,27.73
2022-10-20T00:08:39.327Z,32.35
2022-10-20T00:11:07.316Z,33.22
2022-10-20T00:13:34.173Z,32.05
2022-10-20T00:18:27.939Z,30.92
2022-10-20T00:20:54.823Z,32.08
2022-10-20T00:23:22.137Z,37.95
2022-10-20T00:25:48.823Z,34.58
2022-10-20T00:28:15.489Z,39.17
2022-10-20T00:33:08.807Z,37.42
2022-10-20T00:38:04.351Z,37.83
2022-10-20T00:40:31.028Z,33.08
2022-10-20T00:45:24.572Z,35.15
2022-10-20T00:50:42.373Z,37.53
2022-10-20T00:53:09.185Z,34.05
2022-10-20T00:58:04.712Z,32.20
2022-10-20T01:00:31.835Z,35.13
2022-10-20T01:03:01.543Z,29.17
2022-10-20T01:05:28.632Z,26.15
2022-10-20T01:07:55.568Z,32.60
2022-10-20T01:12:49.974Z,23.33
2022-10-20T01:15:34.539Z,31.73
2022-10-20T01:18:09.862Z,37.58
2022-10-20T01:20:45.132Z,33.00
2022-10-20T01:23:34.281Z,34.50
2022-10-20T01:26:30.124Z,33.90
2022-10-20T01:28:58.555Z,37.88
2022-10-20T01:31:33.882Z,36.55
2022-10-20T01:34:12.983Z,32.47
2022-10-20T01:36:47.345Z,32.72
2022-10-20T01:39:25.762Z,35.33
2022-10-20T01:42:18.756Z,30.30
2022-10-20T01:44:47.218Z,33.17
2022-10-20T01:47:15.921Z,35.00
2022-10-20T01:49:45.124Z,31.88
2022-10-20T01:52:12.502Z,37.08
2022-10-20T01:54:39.594Z,34.92
2022-10-20T01:57:19.602Z,31.80
2022-10-20T02:00:06.588Z,31.80
2022-10-20T02:02:49.092Z,40.45
2022-10-20T02:05:42.531Z,31.25
2022-10-20T02:08:37.312Z,29.38
2022-10-20T02:11:07.328Z,28.92
2022-10-20T02:13:38.490Z,30.55
2022-10-20T02:16:12.828Z,29.77
2022-10-20T02:18:42.880Z,34.35
2022-10-20T02:21:11.054Z,38.90
2022-10-20T02:23:40.290Z,34.88
2022-10-20T02:26:09.581Z,33.25
2022-10-20T02:28:39.165Z,37.85
2022-10-20T02:31:05.909Z,28.63
2022-10-20T02:36:04.868Z,36.50
2022-10-20T02:38:31.803Z,39.65
2022-10-20T02:40:58.451Z,41.55
2022-10-20T02:43:25.117Z,37.30
2022-10-20T02:45:51.750Z,45.17
2022-10-20T02:48:18.416Z,41.45
2022-10-20T02:50:45.136Z,46.75
2022-10-20T02:55:38.374Z,37.80
2022-10-20T02:58:05.014Z,41.25
2022-10-20T03:00:31.935Z,39.50
2022-10-20T03:02:58.694Z,32.92
2022-10-20T03:07:54.105Z,41.35
2022-10-20T03:10:20.950Z,37.17
2022-10-20T03:15:14.443Z,39.75
2022-10-20T03:20:08.214Z,51.80
2022-10-20T03:22:34.871Z,35.78
2022-10-20T03:25:01.529Z,45.50
2022-10-20T03:29:54.769Z,41.53
2022-10-20T03:32:21.437Z,40.92
2022-10-20T03:34:48.055Z,37.83
2022-10-20T03:37:14.701Z,41.17
2022-10-20T03:39:41.566Z,38.17
2022-10-20T03:42:08.306Z,36.05
2022-10-20T03:44:34.967Z,37.75
2022-10-20T03:47:01.683Z,40.00
2022-10-20T03:49:28.364Z,46.00
2022-10-20T03:51:55.018Z,37.30
2022-10-20T03:54:21.694Z,35.08
2022-10-20T03:56:48.427Z,42.00
2022-10-20T04:01:45.390Z,34.78
2022-10-20T04:04:12.602Z,32.50
2022-10-20T04:06:39.416Z,37.97
2022-10-20T04:11:33.058Z,36.38
2022-10-20T04:16:26.351Z,30.92
2022-10-20T04:18:53.166Z,35.33
2022-10-20T04:23:46.381Z,33.63
2022-10-20T04:26:15.131Z,34.80
2022-10-20T04:28:42.432Z,42.22
2022-10-20T04:31:09.248Z,41.40
2022-10-20T04:36:06.593Z,29.52
2022-10-20T04:38:34.658Z,26.27
2022-10-20T04:41:04.436Z,33.15
2022-10-20T04:43:32.577Z,39.22
2022-10-20T04:46:07.004Z,35.90
2022-10-20T04:48:35.694Z,38.90
2022-10-20T04:51:06.523Z,45.33
2022-10-20T04:53:33.546Z,44.80
2022-10-20T04:56:00.370Z,38.90
2022-10-20T05:00:54.169Z,41.03
2022-10-20T05:03:21.211Z,41.78
2022-10-20T05:05:48.037Z,45.00
2022-10-20T05:10:41.302Z,39.92
2022-10-20T05:13:07.990Z,40.25
2022-10-20T05:18:01.306Z,36.40
2022-10-20T05:20:30.906Z,32.78
2022-10-20T05:22:57.809Z,39.95
2022-10-20T05:25:36.055Z,38.40
2022-10-20T05:28:04.400Z,60.72
2022-10-20T05:30:31.197Z,73.20
2022-10-20T05:35:24.485Z,32.47
2022-10-20T05:37:51.174Z,33.35
2022-10-20T05:42:44.410Z,30.25
2022-10-20T05:45:11.218Z,30.02
2022-10-20T05:50:05.249Z,20.80
2022-10-20T05:52:34.484Z,24.63
2022-10-20T05:55:01.502Z,23.23
2022-10-20T05:59:54.992Z,27.70
2022-10-20T06:02:22.152Z,23.75
2022-10-20T06:04:48.809Z,25.40
2022-10-20T06:07:15.712Z,26.15
2022-10-20T06:14:40.598Z,25.33
2022-10-20T06:17:07.389Z,27.33
2022-10-20T06:22:03.977Z,33.50
2022-10-20T06:24:33.880Z,24.15
2022-10-20T06:27:00.498Z,31.25
2022-10-20T06:29:27.307Z,25.40
2022-10-20T06:34:25.334Z,33.88
2022-10-20T06:36:52.759Z,29.65
2022-10-20T06:39:22.533Z,28.80
2022-10-20T06:41:51.013Z,32.40
2022-10-20T06:44:22.783Z,26.67
2022-10-20T06:46:52.219Z,30.45
2022-10-20T06:49:19.446Z,33.90
2022-10-20T06:51:46.173Z,32.65
2022-10-20T06:56:40.231Z,34.67
2022-10-20T06:59:07.278Z,37.72
2022-10-20T07:01:36.700Z,36.95
2022-10-20T07:04:15.575Z,37.17
2022-10-20T07:06:43.912Z,43.25
2022-10-20T07:09:14.463Z,45.15
2022-10-20T07:11:41.784Z,48.53
2022-10-20T07:14:09.779Z,47.10
2022-10-20T07:16:36.498Z,41.35
2022-10-20T07:21:35.640Z,44.95
2022-10-20T07:24:05.829Z,35.88
2022-10-20T07:26:35.525Z,35.20
2022-10-20T07:29:03.819Z,31.52
2022-10-20T07:31:39.705Z,31.35
2022-10-20T07:34:26.183Z,41.10
2022-10-20T07:36:54.567Z,43.70
2022-10-20T07:39:21.267Z,36.88
2022-10-20T07:41:48.598Z,38.78
2022-10-20T07:44:16.038Z,45.55
2022-10-20T07:46:42.899Z,40.85
2022-10-20T07:51:56.242Z,28.27
2022-10-20T07:56:50.009Z,34.72
2022-10-20T08:01:43.749Z,35.28
2022-10-20T08:04:11.107Z,32.72
2022-10-20T08:06:39.148Z,33.47
2022-10-20T08:09:07.217Z,36.17
2022-10-20T08:11:34.120Z,39.10
2022-10-20T08:14:00.886Z,33.13
2022-10-20T08:16:31.926Z,40.53
2022-10-20T08:19:15.220Z,36.80
2022-10-20T08:21:41.920Z,49.33
2022-10-20T08:24:08.699Z,47.17
2022-10-20T08:26:35.378Z,46.05
2022-10-20T08:29:02.575Z,43.88
2022-10-20T08:31:29.370Z,45.25
2022-10-20T08:33:56.859Z,38.08
2022-10-20T08:36:23.766Z,44.08
2022-10-20T08:38:50.534Z,44.42
2022-10-20T08:41:55.492Z,48.45
2022-10-20T08:44:27.149Z,41.58
2022-10-20T08:46:53.928Z,48.80
2022-10-20T08:51:52.182Z,49.22
2022-10-20T08:54:19.320Z,40.28
2022-10-20T08:56:46.666Z,42.55
2022-10-20T08:59:33.624Z,48.78
2022-10-20T09:02:00.783Z,38.70
2022-10-20T09:04:32.342Z,50.58
2022-10-20T09:07:03.356Z,46.55
2022-10-20T09:09:32.063Z,61.90
2022-10-20T09:12:10.016Z,49.40
2022-10-20T09:14:37.726Z,56.30
2022-10-20T09:17:09.113Z,51.97
2022-10-20T09:19:38.480Z,61.03
2022-10-20T09:22:06.954Z,50.53
2022-10-20T09:24:35.682Z,49.83
2022-10-20T09:27:29.837Z,45.80
2022-10-20T09:29:56.566Z,50.97
2022-10-20T09:32:50.371Z,45.88
2022-10-20T09:35:32.985Z,54.40
2022-10-20T09:38:04.466Z,53.45
2022-10-20T09:40:31.617Z,53.72
2022-10-20T09:43:09.119Z,50.97
2022-10-20T09:45:39.168Z,42.15
2022-10-20T09:48:37.323Z,43.63
2022-10-20T09:51:07.092Z,39.40
2022-10-20T09:53:40.854Z,46.17
2022-10-20T09:56:07.677Z,41.95
2022-10-20T10:01:12.249Z,40.67
2022-10-20T10:03:47.843Z,37.30
2022-10-20T10:06:29.992Z,38.47
2022-10-20T10:08:58.902Z,36.08
2022-10-20T10:11:43.969Z,35.47
2022-10-20T10:14:23.243Z,34.40
2022-10-20T10:16:50.079Z,61.78
2022-10-20T10:21:51.332Z,30.77
2022-10-20T10:24:42.876Z,33.35
2022-10-20T10:27:20.253Z,32.67
2022-10-20T10:32:18.951Z,25.02
2022-10-20T10:35:15.044Z,25.95
2022-10-20T10:37:43.666Z,25.83
2022-10-20T10:40:17.424Z,34.72
2022-10-20T10:42:46.782Z,37.20
2022-10-20T10:45:16.179Z,27.85
2022-10-20T10:48:08.562Z,26.15
2022-10-20T10:50:51.391Z,32.45
2022-10-20T10:53:46.034Z,34.95
2022-10-20T10:56:21.096Z,23.05
2022-10-20T10:58:57.137Z,33.80
2022-10-20T11:01:56.239Z,29.70
2022-10-20T11:04:41.884Z,23.55
2022-10-20T11:07:36.975Z,24.48
2022-10-20T11:10:54.650Z,22.45
2022-10-20T11:13:49.171Z,23.35
2022-10-20T11:16:22.056Z,31.58
2022-10-20T11:19:00.500Z,22.90
2022-10-20T11:21:45.312Z,28.95
2022-10-20T11:24:24.627Z,22.50
2022-10-20T11:26:56.532Z,27.15
2022-10-20T11:29:44.834Z,18.48
2022-10-20T11:32:20.706Z,24.10
2022-10-20T11:35:01.542Z,22.80
2022-10-20T11:37:31.293Z,16.58
2022-10-20T11:40:07.542Z,24.40
2022-10-20T11:43:11.059Z,30.75
2022-10-20T11:46:12.808Z,27.02
2022-10-20T11:48:44.347Z,23.92
2022-10-20T11:51:29.900Z,27.45
2022-10-20T11:54:33.829Z,24.13
2022-10-20T11:57:31.207Z,32.10
2022-10-20T12:00:22.296Z,22.55
2022-10-20T12:03:26.900Z,23.42
2022-10-20T12:06:13.085Z,23.67
2022-10-20T12:09:07.755Z,27.05
2022-10-20T12:12:05.297Z,31.35
2022-10-20T12:14:38.082Z,27.73
2022-10-20T12:17:14.449Z,24.60
2022-10-20T12:19:41.577Z,20.00
2022-10-20T12:22:14.592Z,18.65
2022-10-20T12:24:43.720Z,25.38
2022-10-20T12:27:10.438Z,15.70
2022-10-20T12:29:37.119Z,23.90
2022-10-20T12:34:54.592Z,23.60
2022-10-20T12:37:24.393Z,20.83
2022-10-20T12:40:21.329Z,21.35
2022-10-20T12:42:51.432Z,32.17
2022-10-20T12:45:18.032Z,25.17
2022-10-20T12:50:45.167Z,29.42
2022-10-20T12:53:18.003Z,28.13
2022-10-20T12:55:53.997Z,25.92
2022-10-20T12:58:20.613Z,24.65
2022-10-20T13:03:32.376Z,42.65
2022-10-20T13:05:59.631Z,28.42
2022-10-20T13:08:32.347Z,21.40
2022-10-20T13:11:37.686Z,22.35
2022-10-20T13:14:13.363Z,18.10
2022-10-20T13:16:49.403Z,16.50
2022-10-20T13:19:35.560Z,20.77
2022-10-20T13:22:39.091Z,18.00
2022-10-20T13:25:18.107Z,26.73
2022-10-20T13:27:44.856Z,35.58
2022-10-20T13:30:21.676Z,48.10
2022-10-20T13:33:11.222Z,27.60
2022-10-20T13:36:14.447Z,44.55
2022-10-20T13:38:52.910Z,33.20
2022-10-20T13:41:34.228Z,31.60
2022-10-20T13:44:14.973Z,32.80
2022-10-20T13:47:13.375Z,23.20
2022-10-20T13:50:06.312Z,28.73
2022-10-20T13:52:39.947Z,19.90
2022-10-20T13:55:08.321Z,22.50
2022-10-20T13:57:36.006Z,19.38
2022-10-20T14:00:23.072Z,24.45
2022-10-20T14:02:59.908Z,32.63
2022-10-20T14:05:29.186Z,21.20
2022-10-20T14:07:56.114Z,30.92
2022-10-20T14:10:43.480Z,19.50
2022-10-20T14:13:15.157Z,20.83
2022-10-20T14:15:50.600Z,17.05
2022-10-20T14:18:26.253Z,20.98
2022-10-20T14:21:02.658Z,10.65
2022-10-20T14:23:36.680Z,20.98
2022-10-20T14:26:07.111Z,29.55
2022-10-20T14:28:35.605Z,16.77
2022-10-20T14:31:02.824Z,32.30
2022-10-20T14:33:30.522Z,43.63
2022-10-20T14:35:59.229Z,45.63
2022-10-20T14:38:37.829Z,30.42
2022-10-20T14:41:07.596Z,46.63
2022-10-20T14:43:40.805Z,36.90
2022-10-20T14:46:12.826Z,38.00
2022-10-20T14:48:46.092Z,47.25
2022-10-20T14:51:30.937Z,39.80
2022-10-20T14:57:29.974Z,39.35
2022-10-20T15:00:24.949Z,41.03
2022-10-20T15:02:56.756Z,38.47
2022-10-20T15:05:26.267Z,34.25
2022-10-20T15:07:53.985Z,35.83
2022-10-20T15:10:23.876Z,51.50
2022-10-20T15:12:53.101Z,42.72
2022-10-20T15:15:27.696Z,38.40
2022-10-20T15:18:06.741Z,37.67
2022-10-20T15:20:37.477Z,31.88
2022-10-20T15:23:18.984Z,33.30
2022-10-20T15:25:57.949Z,40.28
2022-10-20T15:28:49.584Z,37.40
2022-10-20T15:31:25.075Z,37.60
2022-10-20T15:33:52.633Z,34.03
2022-10-20T15:36:29.518Z,33.03
2022-10-20T15:38:57.196Z,27.05
2022-10-20T15:41:27.026Z,37.55
2022-10-20T15:43:54.108Z,31.83
2022-10-20T15:46:21.639Z,28.27
2022-10-20T15:48:48.808Z,31.00
2022-10-20T15:51:25.947Z,23.02
2022-10-20T15:53:53.017Z,35.05
2022-10-20T15:56:19.821Z,51.90
2022-10-20T15:58:47.031Z,39.70
2022-10-20T16:01:16.795Z,32.83
2022-10-20T16:03:44.525Z,21.85
2022-10-20T16:06:16.224Z,36.33
2022-10-20T16:08:44.643Z,42.80
2022-10-20T16:11:12.238Z,32.50
2022-10-20T16:13:39.145Z,28.23
2022-10-20T16:16:07.685Z,22.08
2022-10-20T16:18:34.614Z,30.67
2022-10-20T16:21:03.421Z,25.73
2022-10-20T16:23:30.077Z,24.85
2022-10-20T16:25:56.782Z,26.50
2022-10-20T16:30:50.071Z,39.17
2022-10-20T16:33:16.819Z,27.65
2022-10-20T16:38:11.383Z,33.75
2022-10-20T16:40:38.150Z,31.77
2022-10-20T16:43:04.793Z,27.05
2022-10-20T16:47:58.226Z,38.47
2022-10-20T16:52:51.560Z,42.83
2022-10-20T16:55:18.308Z,57.97
2022-10-20T17:00:12.121Z,43.90
2022-10-20T17:02:40.228Z,54.05
2022-10-20T17:05:09.359Z,54.40
2022-10-20T17:07:36.890Z,52.47
2022-10-20T17:10:03.966Z,60.17
2022-10-20T17:12:30.660Z,58.15
2022-10-20T17:14:57.341Z,34.63
2022-10-20T17:19:50.620Z,41.88
2022-10-20T17:22:17.261Z,29.25
2022-10-20T17:24:43.894Z,36.88
2022-10-20T17:27:10.520Z,32.55
2022-10-20T17:36:05.284Z,72.38
2022-10-20T17:38:32.298Z,66.82
2022-10-20T17:41:06.401Z,59.75
2022-10-20T17:43:33.724Z,48.03
2022-10-20T17:46:05.645Z,48.03
2022-10-20T17:48:32.943Z,44.38
2022-10-20T17:51:08.338Z,53.75
2022-10-20T17:53:37.242Z,38.35
2022-10-20T17:56:06.535Z,41.22
2022-10-20T17:58:34.084Z,39.40
2022-10-20T18:01:19.564Z,43.40
2022-10-20T18:03:48.512Z,41.65
2022-10-20T18:06:18.649Z,59.60
2022-10-20T18:08:46.260Z,42.38
2022-10-20T18:11:19.209Z,50.67
2022-10-20T18:13:46.497Z,33.47
2022-10-20T18:16:16.122Z,27.13
2022-10-20T18:18:43.137Z,27.15
2022-10-20T18:21:12.882Z,52.10
2022-10-20T18:23:42.382Z,26.92
2022-10-20T18:26:19.473Z,30.35
2022-10-20T18:28:48.545Z,34.00
2022-10-20T18:31:24.060Z,39.67
2022-10-20T18:33:56.261Z,61.13
2022-10-20T18:36:24.169Z,39.67
2022-10-20T18:38:51.349Z,36.50
2022-10-20T18:41:21.119Z,41.42
2022-10-20T18:43:55.607Z,49.03
2022-10-20T18:46:25.979Z,45.13
2022-10-20T18:48:52.885Z,41.53
2022-10-20T18:51:19.632Z,38.55
2022-10-20T18:56:18.961Z,41.80
2022-10-20T18:58:58.872Z,45.65
2022-10-20T19:01:28.596Z,52.28
2022-10-20T19:03:56.974Z,39.22
2022-10-20T19:06:26.403Z,39.15
2022-10-20T19:09:01.583Z,37.47
2022-10-20T19:11:30.844Z,41.60
2022-10-20T19:13:58.764Z,38.70
2022-10-20T19:16:28.333Z,40.85
2022-10-20T19:18:57.635Z,39.33
2022-10-20T19:21:25.324Z,39.80
2022-10-20T19:24:04.309Z,48.33
2022-10-20T19:26:57.015Z,55.13
2022-10-20T19:29:33.606Z,48.42
2022-10-20T19:34:34.820Z,41.47
2022-10-20T19:37:02.480Z,39.55
2022-10-20T19:39:32.465Z,57.63
2022-10-20T19:42:00.930Z,41.88
2022-10-20T19:44:28.857Z,41.97
2022-10-20T19:46:56.077Z,52.60
2022-10-20T19:49:23.560Z,41.78
2022-10-20T19:51:50.506Z,52.72
2022-10-20T19:54:17.439Z,50.42
2022-10-20T19:56:44.184Z,38.67
2022-10-20T20:01:38.302Z,49.83
2022-10-20T20:04:06.393Z,35.60
2022-10-20T20:06:34.341Z,61.25
2022-10-20T20:09:04.210Z,42.72
2022-10-20T20:11:31.370Z,46.08
2022-10-20T20:14:03.447Z,28.40
2022-10-20T20:16:30.456Z,24.63
2022-10-20T20:18:57.179Z,34.30
2022-10-20T20:21:25.436Z,32.45
2022-10-20T20:24:00.784Z,41.33
2022-10-20T20:26:29.914Z,48.08
2022-10-20T20:28:57.248Z,38.72
2022-10-20T20:31:25.063Z,40.10
2022-10-20T20:33:52.786Z,24.27
2022-10-20T20:36:19.890Z,23.33
2022-10-20T20:38:46.815Z,27.55
2022-10-20T20:41:18.124Z,34.92
2022-10-20T20:43:45.245Z,27.45
2022-10-20T20:46:18.385Z,22.67
2022-10-20T20:48:45.710Z,23.67
2022-10-20T20:51:13.444Z,29.48
2022-10-20T20:53:40.776Z,26.05
2022-10-20T20:56:10.244Z,25.88
2022-10-20T20:58:37.301Z,19.60
2022-10-20T21:01:14.329Z,24.55
2022-10-20T21:03:41.901Z,26.25
2022-10-20T21:06:16.837Z,30.35
2022-10-20T21:08:47.598Z,30.52
2022-10-20T21:11:17.382Z,34.38
2022-10-20T21:13:45.232Z,28.58
2022-10-20T21:16:19.530Z,19.92
2022-10-20T21:18:49.017Z,29.98
2022-10-20T21:21:19.218Z,22.80
2022-10-20T21:23:46.247Z,41.13
2022-10-20T21:26:15.333Z,23.95
2022-10-20T21:28:43.036Z,29.67
2022-10-20T21:31:12.400Z,20.08
2022-10-20T21:33:39.379Z,23.33
2022-10-20T21:36:09.197Z,17.02
2022-10-20T21:38:37.322Z,26.70
2022-10-20T21:41:11.733Z,22.77
2022-10-20T21:43:41.278Z,24.65
2022-10-20T21:46:18.647Z,26.42
2022-10-20T21:51:23.145Z,21.08
2022-10-20T21:53:53.835Z,23.75
2022-10-20T21:56:20.502Z,27.52
2022-10-20T21:58:47.213Z,32.33
2022-10-20T22:06:11.417Z,27.57
2022-10-20T22:08:39.718Z,26.98
2022-10-20T22:11:10.001Z,31.20
2022-10-20T22:13:37.421Z,25.35
2022-10-20T22:16:09.155Z,22.75
2022-10-20T22:18:36.147Z,19.92
2022-10-20T22:21:11.161Z,29.13
2022-10-20T22:23:40.382Z,26.92
2022-10-20T22:26:07.472Z,20.85
2022-10-20T22:28:34.211Z,25.63
2022-10-20T22:33:32.830Z,25.75
2022-10-20T22:35:59.593Z,25.50
2022-10-20T22:40:57.007Z,25.83
2022-10-20T22:43:23.814Z,13.05
2022-10-20T22:48:17.433Z,10.60
2022-10-20T22:53:11.162Z,19.40
2022-10-20T22:55:37.926Z,17.75
2022-10-20T23:00:31.466Z,9.05
2022-10-20T23:05:25.179Z,20.43
2022-10-20T23:10:18.478Z,10.93
2022-10-20T23:12:45.154Z,13.70
2022-10-20T23:15:11.987Z,7.53
2022-10-20T23:17:39.148Z,7.93
2022-10-20T23:20:06.313Z,11.55
2022-10-20T23:22:33.367Z,34.50
2022-10-20T23:25:01.412Z,23.90
2022-10-20T23:27:28.228Z,30.25
2022-10-20T23:29:54.976Z,28.83
2022-10-20T23:32:21.646Z,35.35
2022-10-20T23:34:48.290Z,34.60
2022-10-20T23:37:15.007Z,24.60
2022-10-20T23:42:08.330Z,16.35
2022-10-20T23:47:01.665Z,17.85
2022-10-20T23:49:28.421Z,15.38
2022-10-20T23:54:21.976Z,34.13
2022-10-20T23:56:48.619Z,31.17
2022-10-20T23:59:15.396Z,13.48
